Terminal Aerodrome Forecast
Issued by NWS

Home | Current Version | Previous Version | Text Only | Print | Product List | Glossary Off
Versions: 1 2 3 4 5 6 7 8 9 10 11 12 13 14 15 16 17 18

000
FTUS43 KGRB 222320
TAFAUW
TAF
KAUW 222320Z 2300/2324 14007KT P6SM BKN200
     FM230500 14007KT P6SM BKN100
     FM231000 14010KT P6SM OVC070
     FM231600 15013G20KT P6SM OVC070
     FM232100 16013G20KT P6SM VCSH OVC045
     FM232300 15010G16KT P6SM -RA OVC035=

USA.gov is the U.S. government's official web portal to all federal, state and local government web resources and services.